Time;durP1;ratioP1;P1;durP2;ratioP2;P2;SDS_P1;SDS_P2;PMS_P1;PMS_P2;Temp;Humidity;BMP_temperature;BMP_pressure;BME280_temperature;BME280_humidity;BME280_pressure;Samples;Min_cycle;Max_cycle;Signal;HPM_P1;HPM_P2
2022/04/04 00:00:38;;;;;;;6.55;3.45;;;6.60;65.20;;;;;;5055462;28;20039;-61
2022/04/04 00:03:04;;;;;;;6.35;3.20;;;6.60;65.20;;;;;;5069076;28;20028;-61
2022/04/04 00:05:30;;;;;;;6.78;2.97;;;6.60;65.20;;;;;;5055823;28;20082;-61
2022/04/04 00:07:56;;;;;;;6.22;2.83;;;6.60;65.20;;;;;;5055646;28;20036;-61
2022/04/04 00:10:22;;;;;;;6.95;3.20;;;6.60;65.20;;;;;;5056189;28;20335;-61
2022/04/04 00:12:47;;;;;;;5.55;2.50;;;6.60;65.30;;;;;;5053181;28;20506;-61
2022/04/04 00:15:13;;;;;;;7.15;3.22;;;6.60;65.20;;;;;;5072634;28;20096;-61
2022/04/04 00:17:39;;;;;;;6.10;2.70;;;6.60;65.30;;;;;;5054616;28;20066;-61
2022/04/04 00:20:07;;;;;;;5.88;2.70;;;6.60;65.30;;;;;;5055210;28;20029;-61
2022/04/04 00:22:33;;;;;;;5.93;2.72;;;6.50;65.30;;;;;;5055004;28;20381;-61
2022/04/04 00:24:58;;;;;;;6.40;2.78;;;6.50;65.30;;;;;;5069393;28;20035;-61
2022/04/04 00:27:24;;;;;;;7.82;3.05;;;6.50;65.30;;;;;;5066092;28;20024;-61
2022/04/04 00:29:51;;;;;;;5.07;2.58;;;6.50;65.30;;;;;;5053496;28;20404;-61
2022/04/04 00:32:17;;;;;;;6.97;2.88;;;6.50;65.30;;;;;;5054747;28;20033;-61
2022/04/04 00:34:43;;;;;;;5.60;2.65;;;6.50;65.40;;;;;;5065134;28;20036;-61
2022/04/04 00:37:09;;;;;;;7.30;3.15;;;6.50;65.40;;;;;;5069019;28;20025;-61
2022/04/04 00:39:34;;;;;;;7.57;2.65;;;6.50;65.30;;;;;;5062102;28;20031;-61
2022/04/04 00:42:00;;;;;;;8.48;3.20;;;6.50;65.30;;;;;;5055117;28;20085;-61
2022/04/04 00:44:26;;;;;;;6.50;3.13;;;6.50;65.30;;;;;;5062520;28;20044;-61
2022/04/04 00:46:52;;;;;;;8.20;2.95;;;6.50;65.30;;;;;;5059242;28;20422;-61
2022/04/04 00:49:17;;;;;;;7.60;3.72;;;6.50;65.30;;;;;;5061127;28;20036;-61
2022/04/04 00:51:43;;;;;;;7.45;3.17;;;6.50;65.40;;;;;;5074320;28;20060;-61
2022/04/04 00:54:09;;;;;;;7.03;3.22;;;6.40;65.40;;;;;;5061072;28;20403;-61
2022/04/04 00:56:37;;;;;;;7.13;3.20;;;6.40;65.40;;;;;;5054225;28;20330;-61
2022/04/04 00:59:05;;;;;;;7.32;3.58;;;6.40;65.40;;;;;;5055533;28;20019;-61
2022/04/04 01:01:32;;;;;;;6.78;3.20;;;6.40;65.40;;;;;;5055145;28;20028;-61
2022/04/04 01:03:58;;;;;;;7.72;3.42;;;6.40;65.40;;;;;;5054786;28;20110;-62
2022/04/04 01:06:24;;;;;;;7.45;3.75;;;6.40;65.40;;;;;;5054448;28;20127;-61
2022/04/04 01:08:49;;;;;;;8.50;4.10;;;6.40;65.50;;;;;;5062767;28;20722;-62
2022/04/04 01:11:16;;;;;;;8.77;3.90;;;6.40;65.60;;;;;;5054685;28;20062;-62
2022/04/04 01:13:46;;;;;;;8.77;4.40;;;6.40;65.60;;;;;;5058015;28;20102;-63
2022/04/04 01:16:12;;;;;;;9.40;4.00;;;6.40;65.60;;;;;;5075096;28;20028;-61
2022/04/04 01:18:39;;;;;;;7.72;3.92;;;6.30;65.50;;;;;;5062435;28;20338;-61
2022/04/04 01:21:04;;;;;;;10.82;5.15;;;6.40;66.20;;;;;;5068958;28;20021;-61
2022/04/04 01:23:40;;;;;;;8.68;4.18;;;6.40;65.50;;;;;;5058880;28;20025;-61
2022/04/04 01:26:07;;;;;;;7.88;4.32;;;6.30;65.50;;;;;;5057955;28;20135;-61
2022/04/04 01:28:33;;;;;;;7.82;3.95;;;6.30;65.50;;;;;;5058332;28;20037;-61
2022/04/04 01:30:59;;;;;;;8.15;3.85;;;6.40;65.60;;;;;;5076282;28;20127;-61
2022/04/04 01:33:25;;;;;;;8.07;4.55;;;6.30;65.50;;;;;;5060084;28;20072;-61
2022/04/04 01:35:51;;;;;;;9.95;4.43;;;6.30;65.40;;;;;;5059329;28;20057;-61
2022/04/04 01:38:17;;;;;;;9.68;4.30;;;6.40;65.40;;;;;;5057452;28;20338;-61
2022/04/04 01:40:43;;;;;;;7.45;4.03;;;6.30;65.30;;;;;;5061622;28;20029;-62
2022/04/04 01:43:09;;;;;;;8.23;4.20;;;6.30;65.20;;;;;;5057128;28;20040;-61
2022/04/04 01:48:19;;;;;;;7.72;4.05;;;6.40;65.00;;;;;;5057250;28;20094;-61
2022/04/04 01:50:44;;;;;;;8.50;4.30;;;6.40;65.00;;;;;;5058204;28;20041;-63
2022/04/04 01:53:29;;;;;;;7.87;3.87;;;6.40;64.90;;;;;;5041416;28;20036;-63
2022/04/04 01:56:00;;;;;;;7.35;3.40;;;6.40;64.80;;;;;;5060211;28;20107;-64
2022/04/04 01:58:26;;;;;;;7.15;3.75;;;6.40;64.70;;;;;;5056265;28;20037;-61
2022/04/04 02:00:56;;;;;;;7.75;4.05;;;6.40;64.60;;;;;;5064593;28;20350;-62
2022/04/04 02:03:22;;;;;;;9.07;4.03;;;6.40;64.60;;;;;;5057377;28;20075;-61
2022/04/04 02:05:48;;;;;;;9.05;4.13;;;6.40;64.60;;;;;;5057730;28;20389;-61
2022/04/04 02:08:14;;;;;;;8.52;4.50;;;6.40;64.50;;;;;;5057570;28;20083;-61
2022/04/04 02:10:39;;;;;;;7.90;4.25;;;6.40;64.40;;;;;;5067767;28;20025;-61
2022/04/04 02:13:05;;;;;;;9.07;3.97;;;6.40;64.30;;;;;;5056044;28;20041;-61
2022/04/04 02:15:31;;;;;;;8.90;4.63;;;6.40;64.20;;;;;;5058207;28;20288;-61
2022/04/04 02:17:57;;;;;;;9.20;4.55;;;6.40;64.10;;;;;;5057609;28;20028;-61
2022/04/04 02:20:23;;;;;;;10.27;4.88;;;6.50;64.10;;;;;;5068488;28;20028;-61
2022/04/04 02:22:49;;;;;;;8.32;5.03;;;6.50;64.00;;;;;;5057252;28;20061;-61
2022/04/04 02:25:15;;;;;;;8.23;4.50;;;6.40;63.90;;;;;;5063666;28;20127;-61
2022/04/04 02:27:40;;;;;;;9.00;4.70;;;6.40;63.80;;;;;;5057174;28;20120;-61
2022/04/04 02:30:07;;;;;;;8.07;4.40;;;6.50;63.80;;;;;;5056794;28;20048;-61
2022/04/04 02:32:32;;;;;;;8.45;4.50;;;6.50;63.70;;;;;;5076391;28;20031;-61
2022/04/04 02:34:58;;;;;;;7.63;4.50;;;6.40;63.60;;;;;;5065994;28;20033;-61
2022/04/04 02:37:23;;;;;;;7.78;4.78;;;6.40;63.60;;;;;;5074984;28;20433;-61
2022/04/04 02:39:49;;;;;;;8.43;5.00;;;6.40;63.60;;;;;;5066864;28;20032;-61
2022/04/04 02:42:15;;;;;;;8.68;4.85;;;6.50;63.60;;;;;;5073108;28;20029;-61
2022/04/04 02:44:40;;;;;;;11.63;5.38;;;6.40;63.40;;;;;;5076011;28;20047;-61
2022/04/04 02:47:07;;;;;;;9.68;5.28;;;6.50;63.30;;;;;;5062174;28;20453;-61
2022/04/04 02:49:33;;;;;;;10.73;5.30;;;6.40;63.20;;;;;;5060738;28;20032;-61
2022/04/04 02:51:59;;;;;;;9.82;5.28;;;6.50;63.20;;;;;;5064164;28;20108;-61
2022/04/04 02:54:25;;;;;;;9.55;5.22;;;6.50;63.30;;;;;;5056980;28;20033;-61
2022/04/04 02:56:51;;;;;;;8.27;5.00;;;6.40;63.20;;;;;;5058067;28;20025;-61
2022/04/04 02:59:16;;;;;;;9.38;6.20;;;6.40;63.10;;;;;;5061314;28;20433;-61
2022/04/04 03:01:48;;;;;;;9.57;5.38;;;6.50;63.20;;;;;;5068122;28;20090;-61
2022/04/04 03:04:17;;;;;;;9.70;5.43;;;6.50;63.10;;;;;;5056709;28;20122;-61
2022/04/04 03:06:43;;;;;;;11.32;6.40;;;6.40;63.10;;;;;;5055728;28;20056;-61
2022/04/04 03:09:09;;;;;;;11.73;6.10;;;6.40;63.00;;;;;;5059885;28;20449;-61
2022/04/04 03:11:36;;;;;;;10.20;6.40;;;6.40;63.00;;;;;;5070631;28;20116;-61
2022/04/04 03:14:02;;;;;;;8.45;5.38;;;6.40;63.00;;;;;;5056901;28;20120;-61
2022/04/04 03:16:27;;;;;;;10.68;5.88;;;6.40;62.90;;;;;;5057428;28;20471;-61
2022/04/04 03:18:54;;;;;;;10.38;6.28;;;6.40;62.90;;;;;;5057405;28;20025;-61
2022/04/04 03:21:21;;;;;;;10.05;6.22;;;6.40;63.50;;;;;;5072056;28;20021;-61
2022/04/04 03:23:46;;;;;;;10.18;6.82;;;6.40;62.80;;;;;;5056192;28;20426;-61
2022/04/04 03:26:12;;;;;;;9.68;5.72;;;6.40;62.90;;;;;;5063243;28;20060;-61
2022/04/04 03:28:38;;;;;;;10.80;5.88;;;6.40;62.90;;;;;;5056585;28;20043;-61
2022/04/04 03:31:05;;;;;;;9.40;6.10;;;6.40;62.90;;;;;;5074755;28;20098;-61
2022/04/04 03:33:35;;;;;;;12.55;6.82;;;6.40;62.90;;;;;;5056403;28;20033;-61
2022/04/04 03:36:00;;;;;;;10.82;6.45;;;6.50;62.90;;;;;;5055691;28;20033;-61
2022/04/04 03:38:27;;;;;;;11.75;6.70;;;6.40;62.70;;;;;;5073010;28;20170;-61
2022/04/04 03:40:53;;;;;;;11.68;6.10;;;6.50;62.80;;;;;;5058755;28;20488;-61
2022/04/04 03:43:19;;;;;;;10.27;6.60;;;6.50;62.80;;;;;;5072413;28;20039;-61
2022/04/04 03:45:45;;;;;;;11.60;6.15;;;6.50;62.70;;;;;;5075668;28;20037;-61
2022/04/04 03:48:11;;;;;;;11.02;6.40;;;6.50;62.70;;;;;;5062980;28;20066;-61
2022/04/04 03:50:37;;;;;;;9.35;5.32;;;6.50;62.70;;;;;;5070621;28;20111;-61
2022/04/04 03:53:03;;;;;;;10.38;6.75;;;6.50;62.70;;;;;;5061011;28;20279;-61
2022/04/04 03:55:38;;;;;;;11.32;6.22;;;6.50;62.70;;;;;;5055373;28;20031;-61
2022/04/04 03:58:04;;;;;;;10.48;5.50;;;6.50;62.70;;;;;;5057396;28;20075;-61
2022/04/04 04:00:30;;;;;;;8.95;5.88;;;6.50;62.60;;;;;;5067480;28;20090;-61
2022/04/04 04:02:56;;;;;;;10.63;5.95;;;6.50;62.50;;;;;;5063106;28;20032;-61
2022/04/04 04:05:22;;;;;;;9.63;5.75;;;6.50;62.50;;;;;;5054321;28;20037;-61
2022/04/04 04:07:48;;;;;;;10.68;5.60;;;6.50;62.50;;;;;;5054558;28;20029;-61
2022/04/04 04:10:14;;;;;;;9.93;5.95;;;6.60;62.50;;;;;;5058922;28;20082;-61
2022/04/04 04:12:41;;;;;;;9.93;5.93;;;6.60;62.40;;;;;;5061044;28;20377;-61
2022/04/04 04:15:12;;;;;;;10.20;5.82;;;6.50;62.40;;;;;;5056539;28;20044;-61
2022/04/04 04:17:38;;;;;;;8.95;5.30;;;6.60;62.40;;;;;;5047317;28;20036;-61
2022/04/04 04:20:20;;;;;;;10.25;5.90;;;6.60;62.40;;;;;;5038433;28;20021;-60
2022/04/04 04:22:47;;;;;;;;;;;6.50;62.30;;;;;;5035063;28;20405;-61
2022/04/04 04:25:14;;;;;;;11.18;5.65;;;6.60;62.40;;;;;;5041007;28;19909;-61
2022/04/04 04:27:41;;;;;;;10.45;5.50;;;6.50;62.30;;;;;;5040043;28;20025;-61
2022/04/04 04:30:07;;;;;;;8.73;4.85;;;6.50;62.30;;;;;;5034809;28;20111;-61
2022/04/04 04:32:33;;;;;;;10.23;6.07;;;6.50;62.30;;;;;;5035296;28;20365;-61
2022/04/04 04:34:59;;;;;;;10.90;5.93;;;6.60;62.30;;;;;;5043703;28;20025;-61
2022/04/04 04:37:24;;;;;;;12.67;6.57;;;6.60;62.30;;;;;;5065507;28;20082;-61
2022/04/04 04:39:50;;;;;;;10.50;5.60;;;6.60;62.30;;;;;;5055159;28;20021;-61
2022/04/04 04:42:16;;;;;;;10.73;5.88;;;6.60;62.30;;;;;;5054529;28;20025;-60
2022/04/04 04:44:43;;;;;;;9.77;5.25;;;6.60;62.40;;;;;;5069777;28;20032;-61
2022/04/04 04:47:09;;;;;;;12.13;5.72;;;6.60;62.50;;;;;;5057368;28;20024;-61
2022/04/04 04:49:35;;;;;;;10.15;5.47;;;6.60;62.50;;;;;;5073739;28;20360;-61
2022/04/04 04:52:01;;;;;;;11.65;6.20;;;6.60;62.40;;;;;;5061785;28;20032;-61
2022/04/04 04:54:27;;;;;;;11.48;5.05;;;6.60;62.40;;;;;;5056661;28;20032;-62
2022/04/04 04:56:53;;;;;;;11.48;5.35;;;6.60;62.40;;;;;;5063895;28;20024;-62
2022/04/04 04:59:18;;;;;;;10.77;5.45;;;6.60;62.40;;;;;;5059440;28;20033;-62
2022/04/04 05:01:44;;;;;;;11.85;5.40;;;6.60;62.50;;;;;;5053545;28;20422;-64
2022/04/04 05:04:09;;;;;;;11.60;5.43;;;6.60;62.40;;;;;;5054310;28;20064;-63
2022/04/04 05:06:36;;;;;;;9.68;5.35;;;6.60;63.10;;;;;;5053327;28;20035;-63
2022/04/04 05:09:02;;;;;;;10.85;5.45;;;6.60;62.50;;;;;;5056729;28;20345;-62
2022/04/04 05:11:28;;;;;;;8.35;5.07;;;6.70;62.50;;;;;;5060553;28;20036;-62
2022/04/04 05:13:54;;;;;;;10.40;5.75;;;6.70;62.50;;;;;;5062577;28;20028;-62
2022/04/04 05:16:20;;;;;;;8.82;5.40;;;6.70;62.50;;;;;;5058004;28;20029;-62
2022/04/04 05:18:45;;;;;;;10.60;5.50;;;6.70;62.50;;;;;;5066193;28;20075;-62
2022/04/04 05:21:12;;;;;;;8.95;5.35;;;6.70;62.40;;;;;;5067534;28;20024;-62
2022/04/04 05:23:38;;;;;;;10.15;5.45;;;6.70;62.50;;;;;;5070098;28;20446;-62
2022/04/04 05:26:05;;;;;;;10.73;6.47;;;6.70;62.50;;;;;;5068620;28;20037;-62
2022/04/04 05:28:31;;;;;;;11.57;5.95;;;6.80;62.50;;;;;;5055868;28;20033;-62
2022/04/04 05:30:57;;;;;;;10.93;5.32;;;6.80;62.50;;;;;;5054128;28;20049;-62
2022/04/04 05:33:23;;;;;;;11.20;6.38;;;6.80;62.40;;;;;;5058801;28;20048;-62
2022/04/04 05:35:48;;;;;;;9.25;5.70;;;6.90;62.40;;;;;;5059267;28;20024;-62
2022/04/04 05:38:15;;;;;;;11.98;6.03;;;6.90;62.40;;;;;;5052956;28;20126;-62
2022/04/04 05:40:41;;;;;;;10.07;5.43;;;6.90;62.40;;;;;;5055704;28;20036;-62
2022/04/04 05:43:07;;;;;;;10.05;5.88;;;6.90;62.40;;;;;;5063162;28;20056;-62
2022/04/04 05:45:35;;;;;;;10.90;5.88;;;6.90;62.40;;;;;;5062017;28;20162;-62
2022/04/04 05:48:02;;;;;;;8.98;5.55;;;7.00;62.30;;;;;;5053725;28;20028;-62
2022/04/04 05:50:28;;;;;;;9.77;5.78;;;7.00;62.30;;;;;;5056739;28;20103;-63
2022/04/04 05:52:54;;;;;;;9.95;4.95;;;7.00;62.20;;;;;;5059391;28;20043;-63
2022/04/04 05:55:19;;;;;;;11.73;6.05;;;7.10;62.30;;;;;;5056445;28;20025;-62
2022/04/04 05:57:45;;;;;;;10.13;5.13;;;7.20;62.90;;;;;;5053563;28;20322;-63
2022/04/04 06:00:13;;;;;;;9.63;5.55;;;7.20;62.00;;;;;;5063207;28;20024;-63
2022/04/04 06:02:44;;;;;;;10.43;5.40;;;7.30;61.90;;;;;;5056413;28;20041;-62
2022/04/04 06:05:11;;;;;;;9.33;5.40;;;7.30;61.70;;;;;;5057116;28;20078;-62
2022/04/04 06:07:38;;;;;;;11.60;5.63;;;7.30;61.60;;;;;;5071371;28;20369;-62
2022/04/04 06:10:06;;;;;;;10.55;6.00;;;7.30;61.60;;;;;;5060133;28;20107;-62
2022/04/04 06:12:34;;;;;;;10.90;5.80;;;7.30;61.70;;;;;;5057377;28;20343;-62
2022/04/04 06:15:00;;;;;;;8.80;5.57;;;7.30;61.70;;;;;;5062803;28;20029;-62
2022/04/04 06:17:26;;;;;;;11.40;5.57;;;7.30;61.70;;;;;;5057005;28;20342;-62
2022/04/04 06:19:51;;;;;;;11.48;6.00;;;7.30;61.60;;;;;;5058880;28;20370;-62
2022/04/04 06:22:17;;;;;;;9.18;5.32;;;7.30;61.60;;;;;;5056736;28;20107;-62
2022/04/04 06:24:43;;;;;;;10.98;5.65;;;7.40;61.60;;;;;;5057875;28;20446;-62
2022/04/04 06:27:09;;;;;;;11.52;5.95;;;7.40;61.50;;;;;;5056112;28;20033;-63
2022/04/04 06:29:35;;;;;;;11.07;6.00;;;7.40;61.50;;;;;;5061496;28;20140;-62
2022/04/04 06:32:00;;;;;;;10.25;5.85;;;7.40;61.50;;;;;;5055712;28;20485;-63
2022/04/04 06:34:27;;;;;;;10.85;5.72;;;7.40;61.40;;;;;;5060396;28;20482;-63
2022/04/04 06:36:53;;;;;;;10.75;6.22;;;7.50;61.30;;;;;;5056423;28;20025;-63
2022/04/04 06:39:19;;;;;;;9.32;5.82;;;7.50;61.20;;;;;;5062603;28;20066;-63
2022/04/04 06:41:47;;;;;;;9.73;5.95;;;7.60;61.10;;;;;;5068525;28;20048;-63
2022/04/04 06:44:13;;;;;;;11.02;5.85;;;7.60;61.10;;;;;;5056987;28;20404;-63
2022/04/04 06:46:39;;;;;;;11.35;5.63;;;7.60;61.00;;;;;;5056202;28;20033;-63
2022/04/04 06:49:06;;;;;;;10.18;5.22;;;7.60;60.90;;;;;;5067353;28;20132;-63
2022/04/04 06:51:32;;;;;;;11.10;5.93;;;7.70;60.90;;;;;;5056095;28;20029;-63
2022/04/04 06:54:03;;;;;;;10.15;5.40;;;7.70;60.70;;;;;;5056856;28;20357;-62
2022/04/04 06:56:29;;;;;;;10.38;6.03;;;7.80;60.60;;;;;;5056222;28;20092;-62
2022/04/04 06:58:54;;;;;;;9.40;6.03;;;7.90;60.50;;;;;;5055312;28;20041;-63
2022/04/04 07:01:20;;;;;;;9.75;5.50;;;7.90;60.30;;;;;;5053847;28;20037;-62
2022/04/04 07:03:46;;;;;;;8.65;5.05;;;7.90;60.30;;;;;;5054546;28;20450;-63
2022/04/04 07:06:12;;;;;;;9.80;5.63;;;7.90;60.20;;;;;;5054893;28;20430;-62
2022/04/04 07:08:38;;;;;;;9.20;4.65;;;7.90;60.10;;;;;;5055485;28;20055;-62
2022/04/04 07:11:03;;;;;;;9.93;6.25;;;7.90;60.10;;;;;;5055422;28;20045;-64
2022/04/04 07:13:31;;;;;;;9.90;5.90;;;7.90;60.00;;;;;;5055260;28;20028;-62
2022/04/04 07:15:57;;;;;;;10.15;5.22;;;7.90;59.90;;;;;;5055379;28;20021;-63
2022/04/04 07:18:23;;;;;;;9.45;5.20;;;8.00;59.90;;;;;;5056067;28;20373;-63
2022/04/04 07:20:48;;;;;;;8.30;4.65;;;8.00;59.80;;;;;;5055951;28;20025;-63
2022/04/04 07:23:14;;;;;;;10.50;5.45;;;8.10;59.70;;;;;;5055282;28;20033;-62
2022/04/04 07:25:40;;;;;;;8.70;4.55;;;8.10;59.60;;;;;;5056308;28;20048;-63
2022/04/04 07:28:06;;;;;;;8.75;4.82;;;8.20;59.50;;;;;;5055622;28;20365;-63
2022/04/04 07:30:31;;;;;;;10.63;4.60;;;8.20;59.40;;;;;;5055621;28;20056;-63
2022/04/04 07:32:57;;;;;;;9.88;4.78;;;8.20;59.40;;;;;;5055986;28;20040;-63
2022/04/04 07:35:23;;;;;;;8.80;4.80;;;8.30;59.50;;;;;;5055684;28;20090;-64
2022/04/04 07:37:49;;;;;;;8.00;4.72;;;8.30;59.40;;;;;;5056058;28;20025;-62
2022/04/04 07:40:17;;;;;;;10.38;4.60;;;8.40;59.50;;;;;;5055287;28;20075;-64
2022/04/04 07:42:44;;;;;;;9.52;4.82;;;8.40;59.50;;;;;;5061515;28;20365;-63
2022/04/04 07:45:13;;;;;;;10.50;5.20;;;8.40;59.50;;;;;;5068590;28;20044;-63
2022/04/04 07:47:40;;;;;;;11.02;5.47;;;8.40;59.70;;;;;;5058067;28;20025;-64
2022/04/04 07:50:07;;;;;;;9.43;4.72;;;8.40;59.90;;;;;;5058365;28;20032;-63
2022/04/04 07:52:33;;;;;;;10.48;5.38;;;8.40;60.10;;;;;;5055065;28;20040;-63
2022/04/04 07:54:59;;;;;;;9.55;4.95;;;8.40;60.40;;;;;;5059354;28;20347;-63
2022/04/04 07:57:25;;;;;;;10.50;5.60;;;8.40;60.70;;;;;;5055448;28;20033;-62
2022/04/04 07:59:51;;;;;;;8.70;5.15;;;8.40;61.00;;;;;;5060386;28;20025;-63
2022/04/04 08:02:18;;;;;;;9.45;5.57;;;8.40;61.20;;;;;;5053901;28;20159;-63
2022/04/04 08:04:43;;;;;;;9.68;5.40;;;8.40;61.50;;;;;;5056172;28;20029;-62
2022/04/04 08:07:09;;;;;;;10.10;5.15;;;8.40;61.70;;;;;;5056088;28;20036;-62
2022/04/04 08:09:34;;;;;;;11.15;6.13;;;8.40;61.90;;;;;;5057266;28;20374;-63
2022/04/04 08:12:00;;;;;;;10.68;6.18;;;8.40;62.10;;;;;;5055696;28;20056;-64
2022/04/04 08:14:26;;;;;;;9.32;5.68;;;8.40;62.40;;;;;;5053933;28;20053;-64
2022/04/04 08:16:51;;;;;;;9.25;6.22;;;8.40;62.60;;;;;;5054950;28;20054;-63
2022/04/04 08:19:18;;;;;;;9.35;6.03;;;8.40;62.80;;;;;;5043713;28;20087;-64
2022/04/04 08:21:44;;;;;;;11.27;6.45;;;8.50;63.10;;;;;;5040766;28;20079;-63
2022/04/04 08:24:12;;;;;;;10.27;6.47;;;8.50;63.30;;;;;;5054496;28;20029;-62
2022/04/04 08:26:39;;;;;;;9.88;6.45;;;8.50;63.50;;;;;;5048574;28;20025;-63
2022/04/04 08:29:06;;;;;;;10.57;5.90;;;8.40;63.70;;;;;;5051653;28;20378;-62
2022/04/04 08:31:31;;;;;;;12.95;6.63;;;8.40;63.80;;;;;;5053433;28;20144;-62
2022/04/04 08:33:57;;;;;;;10.18;6.35;;;8.30;63.90;;;;;;5034167;28;20045;-62
2022/04/04 08:36:22;;;;;;;12.60;5.97;;;8.40;64.00;;;;;;5038024;28;20029;-62
2022/04/04 08:38:48;;;;;;;14.48;6.72;;;8.30;64.00;;;;;;5054476;28;20025;-62
2022/04/04 08:41:14;;;;;;;14.20;6.57;;;8.30;64.10;;;;;;5055122;28;20056;-62
2022/04/04 08:43:47;;;;;;;10.95;6.25;;;8.30;64.30;;;;;;5053592;28;20560;-63
2022/04/04 08:46:15;;;;;;;10.43;6.22;;;8.30;64.20;;;;;;5053620;28;20438;-63
2022/04/04 08:48:40;;;;;;;10.52;6.93;;;8.40;64.20;;;;;;5034151;28;20124;-63
2022/04/04 08:51:07;;;;;;;10.02;6.05;;;8.40;64.10;;;;;;5055400;28;20169;-63
2022/04/04 08:53:37;;;;;;;13.90;7.32;;;8.40;64.10;;;;;;5054976;28;20397;-63
2022/04/04 08:56:04;;;;;;;10.82;6.68;;;8.40;64.20;;;;;;5053648;28;20031;-62
2022/04/04 08:58:30;;;;;;;10.40;7.00;;;8.40;64.20;;;;;;5032990;28;20126;-63
2022/04/04 09:00:56;;;;;;;11.20;6.93;;;8.40;64.20;;;;;;5033847;28;20025;-63
2022/04/04 09:03:26;;;;;;;11.45;7.57;;;8.40;64.20;;;;;;5041670;28;20045;-62
2022/04/04 09:05:56;;;;;;;10.70;6.78;;;8.40;64.40;;;;;;5054398;28;20041;-63
2022/04/04 09:08:23;;;;;;;12.07;7.53;;;8.40;64.40;;;;;;5054526;28;20454;-62
2022/04/04 09:10:56;;;;;;;10.02;6.47;;;8.40;64.40;;;;;;5054154;28;20060;-62
2022/04/04 09:13:24;;;;;;;12.05;7.18;;;8.40;64.40;;;;;;5053259;28;20404;-63
2022/04/04 09:15:57;;;;;;;12.57;7.35;;;8.40;64.70;;;;;;5052889;28;20334;-63
2022/04/04 09:18:45;;;;;;;11.43;6.55;;;8.40;65.00;;;;;;5043902;28;20029;-63
2022/04/04 09:21:19;;;;;;;11.90;7.40;;;8.30;65.30;;;;;;5034224;28;20393;-63
2022/04/04 09:23:45;;;;;;;11.45;7.80;;;8.30;65.80;;;;;;5049394;28;20104;-64
2022/04/04 09:26:30;;;;;;;12.38;7.05;;;8.30;66.00;;;;;;5053578;28;20492;-63
2022/04/04 09:29:00;;;;;;;12.68;7.85;;;8.30;66.20;;;;;;5054011;28;20033;-63
2022/04/04 09:31:27;;;;;;;13.23;7.90;;;8.30;66.30;;;;;;5053220;28;20056;-63
2022/04/04 09:33:52;;;;;;;12.68;7.32;;;8.30;66.60;;;;;;5055693;28;20036;-63
2022/04/04 09:36:18;;;;;;;11.40;7.45;;;8.30;66.90;;;;;;5057284;28;20029;-63
2022/04/04 09:39:03;;;;;;;11.88;7.78;;;8.30;67.20;;;;;;5058098;28;20434;-63
2022/04/04 09:41:30;;;;;;;12.48;7.72;;;8.30;67.70;;;;;;5058411;28;20024;-63
2022/04/04 09:44:02;;;;;;;11.68;7.88;;;8.30;67.80;;;;;;5057635;28;20363;-63
2022/04/04 09:46:39;;;;;;;11.93;6.93;;;8.20;68.20;;;;;;5057110;28;20039;-63
2022/04/04 09:49:16;;;;;;;10.48;7.32;;;8.20;68.50;;;;;;5056669;28;20068;-63
2022/04/04 09:51:53;;;;;;;12.55;7.72;;;8.20;68.70;;;;;;5056800;28;20043;-63
2022/04/04 09:54:24;;;;;;;12.93;7.70;;;8.20;69.00;;;;;;5057282;28;20040;-63
2022/04/04 09:56:59;;;;;;;10.35;7.10;;;8.10;69.00;;;;;;5057376;28;20029;-63
2022/04/04 09:59:25;;;;;;;11.55;7.00;;;8.20;69.20;;;;;;5058045;28;20446;-63
2022/04/04 10:01:50;;;;;;;11.70;7.15;;;8.20;69.20;;;;;;5057049;28;20025;-62
2022/04/04 10:04:18;;;;;;;11.98;7.25;;;8.20;69.40;;;;;;5056319;28;20438;-63
2022/04/04 10:06:47;;;;;;;12.45;8.13;;;8.30;69.60;;;;;;5057750;28;20052;-62
2022/04/04 10:09:13;;;;;;;12.63;8.25;;;8.30;69.80;;;;;;5057259;28;20029;-63
2022/04/04 10:11:40;;;;;;;11.93;7.60;;;8.30;69.90;;;;;;5043011;28;20030;-63
2022/04/04 10:14:06;;;;;;;11.77;6.93;;;8.30;70.10;;;;;;5052866;28;20032;-63
2022/04/04 10:16:33;;;;;;;11.48;6.95;;;8.30;70.30;;;;;;5057792;28;20040;-63
2022/04/04 10:18:59;;;;;;;10.48;6.60;;;8.30;70.40;;;;;;5057638;28;20040;-63
2022/04/04 10:21:26;;;;;;;11.07;6.55;;;8.30;70.50;;;;;;5056607;28;20032;-63
2022/04/04 10:23:55;;;;;;;13.50;6.75;;;8.30;70.40;;;;;;5058534;28;20029;-63
2022/04/04 10:26:27;;;;;;;11.50;6.75;;;8.30;70.50;;;;;;5058713;28;20029;-63
2022/04/04 10:29:08;;;;;;;12.88;6.38;;;8.30;70.60;;;;;;5056226;28;20029;-63
2022/04/04 10:31:42;;;;;;;10.55;6.20;;;8.40;70.90;;;;;;5054053;28;20472;-62
2022/04/04 10:34:14;;;;;;;9.80;5.78;;;8.30;70.90;;;;;;5052718;28;20036;-63
2022/04/04 10:36:58;;;;;;;9.48;6.00;;;8.30;71.00;;;;;;5055676;28;20033;-63
2022/04/04 10:39:33;;;;;;;13.35;6.43;;;8.30;71.10;;;;;;5061075;28;20024;-63
2022/04/04 10:41:59;;;;;;;10.45;6.60;;;8.40;71.90;;;;;;5056714;28;20067;-63
2022/04/04 10:44:44;;;;;;;11.70;6.05;;;8.40;71.20;;;;;;5063448;28;20445;-63
2022/04/04 10:47:20;;;;;;;12.65;6.63;;;8.40;71.50;;;;;;5045101;28;20037;-62
2022/04/04 10:49:47;;;;;;;10.00;6.00;;;8.40;71.60;;;;;;5056773;28;20036;-63
2022/04/04 10:52:12;;;;;;;8.85;5.65;;;8.40;71.60;;;;;;5067868;28;20024;-63
2022/04/04 10:54:38;;;;;;;10.38;6.00;;;8.40;72.20;;;;;;5072653;28;20122;-63
2022/04/04 10:57:15;;;;;;;10.65;5.75;;;8.40;71.80;;;;;;5056677;28;20123;-63
2022/04/04 10:59:46;;;;;;;10.82;6.03;;;8.40;72.00;;;;;;5064899;28;20370;-63
2022/04/04 11:02:15;;;;;;;10.10;5.72;;;8.40;72.10;;;;;;5057267;28;20021;-63
2022/04/04 11:07:41;;;;;;;12.80;5.20;;;8.40;72.20;;;;;;5067179;28;20033;-63
2022/04/04 11:10:09;;;;;;;;;;;8.40;72.30;;;;;;5046799;28;20029;-64
2022/04/04 11:13:00;;;;;;;8.88;5.22;;;8.40;72.10;;;;;;5068864;28;19915;-63
2022/04/04 11:15:45;;;;;;;9.45;5.20;;;8.40;72.10;;;;;;5057005;28;20095;-63
2022/04/04 11:18:33;;;;;;;8.75;5.00;;;8.40;72.20;;;;;;5067689;28;20021;-63
2022/04/04 11:21:59;;;;;;;9.55;5.00;;;8.40;72.20;;;;;;5061087;28;20029;-63
2022/04/04 11:24:31;;;;;;;8.13;4.82;;;8.50;72.40;;;;;;5054977;28;20040;-63
2022/04/04 11:27:23;;;;;;;7.88;4.80;;;8.50;72.40;;;;;;5053997;28;20048;-63
2022/04/04 11:29:49;;;;;;;8.73;4.45;;;8.50;72.40;;;;;;5066246;28;20476;-63
2022/04/04 11:32:24;;;;;;;7.20;4.35;;;8.50;72.40;;;;;;5062042;28;20067;-63
2022/04/04 11:34:56;;;;;;;9.30;4.63;;;8.50;72.70;;;;;;5076285;28;20060;-64
2022/04/04 11:37:24;;;;;;;7.72;4.60;;;8.50;72.70;;;;;;5058770;28;20470;-63
2022/04/04 11:39:53;;;;;;;10.38;5.00;;;8.50;72.90;;;;;;5056569;28;20087;-63
2022/04/04 11:42:55;;;;;;;6.90;3.80;;;8.50;73.00;;;;;;5054918;28;20040;-64
2022/04/04 11:45:22;;;;;;;;;;;8.50;73.10;;;;;;5036001;28;20394;-64
2022/04/04 11:48:28;;;;;;;8.23;4.55;;;8.60;73.00;;;;;;5049264;28;19908;-63
2022/04/04 11:50:58;;;;;;;8.73;4.28;;;8.60;72.90;;;;;;5038073;28;20037;-63
2022/04/04 11:53:26;;;;;;;8.85;5.13;;;8.60;72.90;;;;;;5059174;28;20036;-63
2022/04/04 11:56:20;;;;;;;8.45;4.60;;;8.70;73.20;;;;;;5055459;28;20083;-63
2022/04/04 11:59:10;;;;;;;11.48;4.97;;;8.60;73.40;;;;;;5050594;28;20034;-64
2022/04/04 12:01:36;;;;;;;8.52;5.00;;;8.60;73.50;;;;;;5068815;28;20029;-64
2022/04/04 12:04:25;;;;;;;8.48;5.38;;;8.70;73.80;;;;;;5057470;28;20365;-64
2022/04/04 12:06:52;;;;;;;9.05;5.78;;;8.70;73.90;;;;;;5055265;28;20043;-64
2022/04/04 12:09:47;;;;;;;9.27;5.68;;;8.70;73.90;;;;;;5060209;28;20323;-64
2022/04/04 12:12:13;;;;;;;8.75;5.40;;;8.70;74.20;;;;;;5064246;28;20428;-63
2022/04/04 12:14:42;;;;;;;9.50;5.55;;;8.70;74.30;;;;;;5053220;28;20037;-64
2022/04/04 12:17:13;;;;;;;9.40;6.00;;;8.70;74.50;;;;;;5055699;28;20055;-63
2022/04/04 12:19:43;;;;;;;9.23;5.55;;;8.60;74.50;;;;;;5047559;28;20111;-63
2022/04/04 12:24:55;;;;;;;9.50;5.85;;;8.70;74.70;;;;;;5059109;28;20033;-64
2022/04/04 12:24:58;;;;;;;9.20;5.30;;;8.70;74.80;;;;;;5059213;28;20049;-64
2022/04/04 12:27:24;;;;;;;9.43;5.55;;;8.60;74.90;;;;;;5053959;28;20115;-64
2022/04/04 12:30:04;;;;;;;8.45;5.07;;;8.60;75.10;;;;;;5053382;28;20501;-63
2022/04/04 12:32:37;;;;;;;8.88;5.07;;;8.70;75.40;;;;;;5055818;28;20307;-63
2022/04/04 12:35:09;;;;;;;8.02;4.53;;;8.60;75.50;;;;;;5074245;28;20063;-63
2022/04/04 12:37:44;;;;;;;9.05;4.28;;;8.70;75.60;;;;;;5057678;28;20033;-62
2022/04/04 12:40:16;;;;;;;8.00;4.78;;;8.70;75.80;;;;;;5055334;28;20052;-63
2022/04/04 12:42:43;;;;;;;8.20;4.10;;;8.70;75.80;;;;;;5055769;28;20103;-63
2022/04/04 12:45:10;;;;;;;7.90;4.78;;;8.70;75.90;;;;;;5054555;28;20033;-63
2022/04/04 12:48:07;;;;;;;8.75;5.05;;;8.80;76.00;;;;;;5062336;28;20037;-64
2022/04/04 12:50:44;;;;;;;9.15;4.65;;;8.80;76.10;;;;;;5072544;28;20032;-62
2022/04/04 12:53:12;;;;;;;8.32;5.03;;;8.80;76.10;;;;;;5055466;28;20035;-63
2022/04/04 12:55:39;;;;;;;7.38;5.15;;;8.80;76.10;;;;;;5054352;28;20033;-63
2022/04/04 12:58:25;;;;;;;9.43;4.97;;;8.80;76.20;;;;;;5055313;28;20017;-62
2022/04/04 13:00:51;;;;;;;8.15;5.20;;;8.80;76.50;;;;;;5074836;28;20025;-63
2022/04/04 13:03:22;;;;;;;7.63;5.07;;;8.80;76.40;;;;;;5059261;28;20442;-63
2022/04/04 13:05:50;;;;;;;7.88;4.88;;;8.80;76.50;;;;;;5053875;28;20679;-63